sensor_id;sensor_type;location;lat;lon;timestamp;P1;durP1;ratioP1;P2;durP2;ratioP2
82374;SDS011;72005;50.496;15.798;2024-03-17T00:01:46;11.48;;;5.53;;
82374;SDS011;72005;50.496;15.798;2024-03-17T00:04:12;5.40;;;3.20;;
82374;SDS011;72005;50.496;15.798;2024-03-17T00:06:38;6.47;;;3.00;;
82374;SDS011;72005;50.496;15.798;2024-03-17T00:09:03;6.20;;;3.10;;
82374;SDS011;72005;50.496;15.798;2024-03-17T00:11:34;7.90;;;3.72;;
82374;SDS011;72005;50.496;15.798;2024-03-17T00:14:01;10.15;;;3.35;;
82374;SDS011;72005;50.496;15.798;2024-03-17T00:16:27;10.57;;;3.85;;
82374;SDS011;72005;50.496;15.798;2024-03-17T00:18:53;10.82;;;4.10;;
82374;SDS011;72005;50.496;15.798;2024-03-17T00:21:19;10.90;;;4.38;;
82374;SDS011;72005;50.496;15.798;2024-03-17T00:23:47;12.05;;;3.72;;
82374;SDS011;72005;50.496;15.798;2024-03-17T00:26:15;10.93;;;4.20;;
82374;SDS011;72005;50.496;15.798;2024-03-17T00:28:41;13.57;;;4.50;;
82374;SDS011;72005;50.496;15.798;2024-03-17T00:31:10;10.98;;;4.43;;
82374;SDS011;72005;50.496;15.798;2024-03-17T00:33:35;8.80;;;3.28;;
82374;SDS011;72005;50.496;15.798;2024-03-17T00:36:01;12.73;;;4.70;;
82374;SDS011;72005;50.496;15.798;2024-03-17T00:38:27;9.30;;;4.25;;
82374;SDS011;72005;50.496;15.798;2024-03-17T00:40:53;9.85;;;4.18;;
82374;SDS011;72005;50.496;15.798;2024-03-17T00:43:19;13.02;;;4.50;;
82374;SDS011;72005;50.496;15.798;2024-03-17T00:45:51;14.07;;;4.35;;
82374;SDS011;72005;50.496;15.798;2024-03-17T00:48:17;6.88;;;3.10;;
82374;SDS011;72005;50.496;15.798;2024-03-17T00:50:43;11.05;;;3.38;;
82374;SDS011;72005;50.496;15.798;2024-03-17T00:53:10;5.13;;;2.72;;
82374;SDS011;72005;50.496;15.798;2024-03-17T00:55:39;6.68;;;2.88;;
82374;SDS011;72005;50.496;15.798;2024-03-17T00:58:05;5.65;;;2.83;;
82374;SDS011;72005;50.496;15.798;2024-03-17T01:00:31;6.22;;;2.75;;
82374;SDS011;72005;50.496;15.798;2024-03-17T01:03:00;6.05;;;3.50;;
82374;SDS011;72005;50.496;15.798;2024-03-17T01:05:26;3.47;;;2.05;;
82374;SDS011;72005;50.496;15.798;2024-03-17T01:07:51;5.63;;;2.90;;
82374;SDS011;72005;50.496;15.798;2024-03-17T01:10:18;5.43;;;2.55;;
82374;SDS011;72005;50.496;15.798;2024-03-17T01:12:44;4.65;;;2.38;;
82374;SDS011;72005;50.496;15.798;2024-03-17T01:15:10;5.45;;;2.42;;
82374;SDS011;72005;50.496;15.798;2024-03-17T01:17:36;6.93;;;2.97;;
82374;SDS011;72005;50.496;15.798;2024-03-17T01:20:02;7.75;;;3.00;;
82374;SDS011;72005;50.496;15.798;2024-03-17T01:22:28;4.60;;;2.40;;
82374;SDS011;72005;50.496;15.798;2024-03-17T01:24:54;4.60;;;2.92;;
82374;SDS011;72005;50.496;15.798;2024-03-17T01:27:20;5.47;;;2.58;;
82374;SDS011;72005;50.496;15.798;2024-03-17T01:29:46;5.63;;;2.80;;
82374;SDS011;72005;50.496;15.798;2024-03-17T01:32:11;7.15;;;3.55;;
82374;SDS011;72005;50.496;15.798;2024-03-17T01:34:37;3.88;;;3.15;;
82374;SDS011;72005;50.496;15.798;2024-03-17T01:37:03;5.32;;;3.03;;
82374;SDS011;72005;50.496;15.798;2024-03-17T01:39:30;5.28;;;3.10;;
82374;SDS011;72005;50.496;15.798;2024-03-17T01:41:57;7.22;;;2.40;;
82374;SDS011;72005;50.496;15.798;2024-03-17T01:44:27;5.40;;;2.90;;
82374;SDS011;72005;50.496;15.798;2024-03-17T01:46:55;4.82;;;2.33;;
82374;SDS011;72005;50.496;15.798;2024-03-17T01:49:22;3.22;;;2.33;;
82374;SDS011;72005;50.496;15.798;2024-03-17T01:51:48;6.13;;;3.10;;
82374;SDS011;72005;50.496;15.798;2024-03-17T01:54:15;4.35;;;2.90;;
82374;SDS011;72005;50.496;15.798;2024-03-17T01:56:42;3.53;;;2.70;;
82374;SDS011;72005;50.496;15.798;2024-03-17T01:59:09;7.68;;;3.17;;
82374;SDS011;72005;50.496;15.798;2024-03-17T02:01:38;6.28;;;2.90;;
82374;SDS011;72005;50.496;15.798;2024-03-17T02:04:04;6.50;;;3.45;;
82374;SDS011;72005;50.496;15.798;2024-03-17T02:06:31;4.38;;;3.08;;
82374;SDS011;72005;50.496;15.798;2024-03-17T02:08:57;7.60;;;3.40;;
82374;SDS011;72005;50.496;15.798;2024-03-17T02:11:24;5.85;;;3.10;;
82374;SDS011;72005;50.496;15.798;2024-03-17T02:13:53;5.35;;;2.97;;
82374;SDS011;72005;50.496;15.798;2024-03-17T02:16:20;2.80;;;2.50;;
82374;SDS011;72005;50.496;15.798;2024-03-17T02:18:47;6.50;;;2.85;;
82374;SDS011;72005;50.496;15.798;2024-03-17T02:21:13;4.47;;;3.05;;
82374;SDS011;72005;50.496;15.798;2024-03-17T02:23:39;4.88;;;3.38;;
82374;SDS011;72005;50.496;15.798;2024-03-17T02:26:05;7.95;;;3.53;;
82374;SDS011;72005;50.496;15.798;2024-03-17T02:28:38;6.60;;;3.45;;
82374;SDS011;72005;50.496;15.798;2024-03-17T02:31:07;6.95;;;3.65;;
82374;SDS011;72005;50.496;15.798;2024-03-17T02:33:33;10.65;;;3.75;;
82374;SDS011;72005;50.496;15.798;2024-03-17T02:35:59;6.15;;;3.45;;
82374;SDS011;72005;50.496;15.798;2024-03-17T02:38:25;5.40;;;3.53;;
82374;SDS011;72005;50.496;15.798;2024-03-17T02:41:09;7.82;;;3.70;;
82374;SDS011;72005;50.496;15.798;2024-03-17T02:43:35;8.32;;;3.97;;
82374;SDS011;72005;50.496;15.798;2024-03-17T02:46:01;5.40;;;3.35;;
82374;SDS011;72005;50.496;15.798;2024-03-17T02:48:30;5.97;;;3.53;;
82374;SDS011;72005;50.496;15.798;2024-03-17T02:50:56;6.75;;;3.05;;
82374;SDS011;72005;50.496;15.798;2024-03-17T02:53:22;4.97;;;3.25;;
82374;SDS011;72005;50.496;15.798;2024-03-17T02:55:48;9.05;;;3.28;;
82374;SDS011;72005;50.496;15.798;2024-03-17T02:58:13;5.63;;;2.88;;
82374;SDS011;72005;50.496;15.798;2024-03-17T03:00:39;7.45;;;3.30;;
82374;SDS011;72005;50.496;15.798;2024-03-17T03:03:05;11.65;;;3.20;;
82374;SDS011;72005;50.496;15.798;2024-03-17T03:05:31;6.93;;;2.72;;
82374;SDS011;72005;50.496;15.798;2024-03-17T03:07:57;4.65;;;3.20;;
82374;SDS011;72005;50.496;15.798;2024-03-17T03:10:23;5.53;;;3.35;;
82374;SDS011;72005;50.496;15.798;2024-03-17T03:12:49;3.20;;;2.85;;
82374;SDS011;72005;50.496;15.798;2024-03-17T03:15:14;9.15;;;3.80;;
82374;SDS011;72005;50.496;15.798;2024-03-17T03:17:41;7.18;;;3.20;;
82374;SDS011;72005;50.496;15.798;2024-03-17T03:20:07;10.20;;;3.55;;
82374;SDS011;72005;50.496;15.798;2024-03-17T03:22:34;11.30;;;4.75;;
82374;SDS011;72005;50.496;15.798;2024-03-17T03:24:59;5.95;;;3.17;;
82374;SDS011;72005;50.496;15.798;2024-03-17T03:27:25;7.60;;;3.25;;
82374;SDS011;72005;50.496;15.798;2024-03-17T03:29:51;4.25;;;3.08;;
82374;SDS011;72005;50.496;15.798;2024-03-17T03:32:16;4.70;;;3.08;;
82374;SDS011;72005;50.496;15.798;2024-03-17T03:34:42;5.65;;;2.90;;
82374;SDS011;72005;50.496;15.798;2024-03-17T03:37:09;5.78;;;3.45;;
82374;SDS011;72005;50.496;15.798;2024-03-17T03:39:36;4.82;;;3.15;;
82374;SDS011;72005;50.496;15.798;2024-03-17T03:42:02;10.05;;;4.00;;
82374;SDS011;72005;50.496;15.798;2024-03-17T03:44:27;5.97;;;3.33;;
82374;SDS011;72005;50.496;15.798;2024-03-17T03:46:54;9.18;;;3.58;;
82374;SDS011;72005;50.496;15.798;2024-03-17T03:49:24;8.90;;;3.25;;
82374;SDS011;72005;50.496;15.798;2024-03-17T03:51:51;9.30;;;3.83;;
82374;SDS011;72005;50.496;15.798;2024-03-17T03:54:16;8.15;;;3.33;;
82374;SDS011;72005;50.496;15.798;2024-03-17T03:56:42;11.40;;;4.10;;
82374;SDS011;72005;50.496;15.798;2024-03-17T03:59:08;9.05;;;3.50;;
82374;SDS011;72005;50.496;15.798;2024-03-17T04:01:34;6.82;;;3.20;;
82374;SDS011;72005;50.496;15.798;2024-03-17T04:03:59;7.13;;;3.60;;
82374;SDS011;72005;50.496;15.798;2024-03-17T04:06:25;4.93;;;2.97;;
82374;SDS011;72005;50.496;15.798;2024-03-17T04:08:51;4.65;;;2.95;;
82374;SDS011;72005;50.496;15.798;2024-03-17T04:11:17;6.60;;;3.25;;
82374;SDS011;72005;50.496;15.798;2024-03-17T04:13:42;9.60;;;2.90;;
82374;SDS011;72005;50.496;15.798;2024-03-17T04:16:08;6.22;;;2.95;;
82374;SDS011;72005;50.496;15.798;2024-03-17T04:18:35;5.35;;;2.60;;
82374;SDS011;72005;50.496;15.798;2024-03-17T04:21:02;6.53;;;3.08;;
82374;SDS011;72005;50.496;15.798;2024-03-17T04:23:30;6.07;;;2.75;;
82374;SDS011;72005;50.496;15.798;2024-03-17T04:25:59;6.03;;;2.75;;
82374;SDS011;72005;50.496;15.798;2024-03-17T04:28:26;9.65;;;2.90;;
82374;SDS011;72005;50.496;15.798;2024-03-17T04:30:52;6.45;;;3.10;;
82374;SDS011;72005;50.496;15.798;2024-03-17T04:33:18;7.97;;;3.17;;
82374;SDS011;72005;50.496;15.798;2024-03-17T04:35:44;3.78;;;2.10;;
82374;SDS011;72005;50.496;15.798;2024-03-17T04:38:10;6.30;;;2.55;;
82374;SDS011;72005;50.496;15.798;2024-03-17T04:40:42;6.63;;;3.63;;
82374;SDS011;72005;50.496;15.798;2024-03-17T04:43:08;9.25;;;2.90;;
82374;SDS011;72005;50.496;15.798;2024-03-17T04:45:34;9.00;;;3.00;;
82374;SDS011;72005;50.496;15.798;2024-03-17T04:48:00;3.25;;;2.00;;
82374;SDS011;72005;50.496;15.798;2024-03-17T04:50:26;5.53;;;2.85;;
82374;SDS011;72005;50.496;15.798;2024-03-17T04:52:57;8.50;;;3.03;;
82374;SDS011;72005;50.496;15.798;2024-03-17T04:55:23;10.93;;;3.13;;
82374;SDS011;72005;50.496;15.798;2024-03-17T04:57:49;7.38;;;3.00;;
82374;SDS011;72005;50.496;15.798;2024-03-17T05:00:15;6.35;;;3.55;;
82374;SDS011;72005;50.496;15.798;2024-03-17T05:02:43;8.23;;;3.67;;
82374;SDS011;72005;50.496;15.798;2024-03-17T05:05:09;12.57;;;4.20;;
82374;SDS011;72005;50.496;15.798;2024-03-17T05:07:36;6.82;;;2.90;;
82374;SDS011;72005;50.496;15.798;2024-03-17T05:10:03;13.63;;;4.18;;
82374;SDS011;72005;50.496;15.798;2024-03-17T05:12:29;10.20;;;3.38;;
82374;SDS011;72005;50.496;15.798;2024-03-17T05:14:55;5.88;;;3.20;;
82374;SDS011;72005;50.496;15.798;2024-03-17T05:17:21;4.30;;;2.88;;
82374;SDS011;72005;50.496;15.798;2024-03-17T05:19:46;8.63;;;3.38;;
82374;SDS011;72005;50.496;15.798;2024-03-17T05:22:12;8.98;;;4.30;;
82374;SDS011;72005;50.496;15.798;2024-03-17T05:24:38;11.35;;;4.28;;
82374;SDS011;72005;50.496;15.798;2024-03-17T05:27:03;11.32;;;5.13;;
82374;SDS011;72005;50.496;15.798;2024-03-17T05:29:29;20.73;;;9.07;;
82374;SDS011;72005;50.496;15.798;2024-03-17T05:31:55;20.17;;;7.78;;
82374;SDS011;72005;50.496;15.798;2024-03-17T05:34:21;13.70;;;5.30;;
82374;SDS011;72005;50.496;15.798;2024-03-17T05:36:50;12.82;;;4.63;;
82374;SDS011;72005;50.496;15.798;2024-03-17T05:39:16;11.63;;;4.82;;
82374;SDS011;72005;50.496;15.798;2024-03-17T05:41:42;15.57;;;4.78;;
82374;SDS011;72005;50.496;15.798;2024-03-17T05:44:09;13.60;;;5.93;;
82374;SDS011;72005;50.496;15.798;2024-03-17T05:46:35;13.73;;;6.15;;
82374;SDS011;72005;50.496;15.798;2024-03-17T05:49:01;13.40;;;6.70;;
82374;SDS011;72005;50.496;15.798;2024-03-17T05:51:28;18.08;;;7.32;;
82374;SDS011;72005;50.496;15.798;2024-03-17T05:53:54;12.00;;;5.78;;
82374;SDS011;72005;50.496;15.798;2024-03-17T05:56:21;18.70;;;7.97;;
82374;SDS011;72005;50.496;15.798;2024-03-17T05:58:48;13.65;;;6.57;;
82374;SDS011;72005;50.496;15.798;2024-03-17T06:01:14;21.42;;;6.80;;
82374;SDS011;72005;50.496;15.798;2024-03-17T06:03:40;17.75;;;6.97;;
82374;SDS011;72005;50.496;15.798;2024-03-17T06:06:07;21.92;;;9.15;;
82374;SDS011;72005;50.496;15.798;2024-03-17T06:08:35;25.23;;;8.75;;
82374;SDS011;72005;50.496;15.798;2024-03-17T06:11:01;25.20;;;8.68;;
82374;SDS011;72005;50.496;15.798;2024-03-17T06:13:27;16.40;;;6.60;;
82374;SDS011;72005;50.496;15.798;2024-03-17T06:15:53;11.18;;;5.70;;
82374;SDS011;72005;50.496;15.798;2024-03-17T06:18:19;13.07;;;5.50;;
82374;SDS011;72005;50.496;15.798;2024-03-17T06:20:45;13.90;;;4.97;;
82374;SDS011;72005;50.496;15.798;2024-03-17T06:23:13;10.77;;;5.03;;
82374;SDS011;72005;50.496;15.798;2024-03-17T06:25:46;10.95;;;5.13;;
82374;SDS011;72005;50.496;15.798;2024-03-17T06:28:14;13.32;;;3.85;;
82374;SDS011;72005;50.496;15.798;2024-03-17T06:30:42;11.75;;;4.53;;
82374;SDS011;72005;50.496;15.798;2024-03-17T06:33:19;7.63;;;3.58;;
82374;SDS011;72005;50.496;15.798;2024-03-17T06:35:46;10.85;;;4.00;;
82374;SDS011;72005;50.496;15.798;2024-03-17T06:38:13;7.22;;;3.38;;
82374;SDS011;72005;50.496;15.798;2024-03-17T06:40:40;6.88;;;3.38;;
82374;SDS011;72005;50.496;15.798;2024-03-17T06:43:06;8.43;;;3.38;;
82374;SDS011;72005;50.496;15.798;2024-03-17T06:45:33;8.75;;;3.00;;
82374;SDS011;72005;50.496;15.798;2024-03-17T06:47:59;9.13;;;3.88;;
82374;SDS011;72005;50.496;15.798;2024-03-17T06:50:25;8.68;;;3.67;;
82374;SDS011;72005;50.496;15.798;2024-03-17T06:52:52;6.53;;;2.78;;
82374;SDS011;72005;50.496;15.798;2024-03-17T06:55:18;10.95;;;3.33;;
82374;SDS011;72005;50.496;15.798;2024-03-17T06:57:50;5.47;;;2.17;;
82374;SDS011;72005;50.496;15.798;2024-03-17T07:00:16;7.78;;;2.55;;
82374;SDS011;72005;50.496;15.798;2024-03-17T07:02:49;6.60;;;2.80;;
82374;SDS011;72005;50.496;15.798;2024-03-17T07:05:14;6.60;;;2.38;;
82374;SDS011;72005;50.496;15.798;2024-03-17T07:07:41;7.25;;;2.90;;
82374;SDS011;72005;50.496;15.798;2024-03-17T07:10:08;9.88;;;3.45;;
82374;SDS011;72005;50.496;15.798;2024-03-17T07:12:34;5.47;;;2.78;;
82374;SDS011;72005;50.496;15.798;2024-03-17T07:15:00;5.60;;;1.95;;
82374;SDS011;72005;50.496;15.798;2024-03-17T07:17:26;8.85;;;2.50;;
82374;SDS011;72005;50.496;15.798;2024-03-17T07:19:51;4.43;;;2.22;;
82374;SDS011;72005;50.496;15.798;2024-03-17T07:22:17;5.32;;;2.08;;
82374;SDS011;72005;50.496;15.798;2024-03-17T07:24:43;6.13;;;2.28;;
82374;SDS011;72005;50.496;15.798;2024-03-17T07:27:10;5.53;;;2.17;;
82374;SDS011;72005;50.496;15.798;2024-03-17T07:29:39;7.15;;;1.92;;
82374;SDS011;72005;50.496;15.798;2024-03-17T07:32:05;6.30;;;2.75;;
82374;SDS011;72005;50.496;15.798;2024-03-17T07:34:31;7.65;;;2.50;;
82374;SDS011;72005;50.496;15.798;2024-03-17T07:36:58;14.77;;;6.63;;
82374;SDS011;72005;50.496;15.798;2024-03-17T07:39:31;14.55;;;6.38;;
82374;SDS011;72005;50.496;15.798;2024-03-17T07:41:58;57.20;;;25.67;;
82374;SDS011;72005;50.496;15.798;2024-03-17T07:44:24;100.60;;;37.13;;
82374;SDS011;72005;50.496;15.798;2024-03-17T07:46:54;17.20;;;7.93;;
82374;SDS011;72005;50.496;15.798;2024-03-17T07:49:19;9.43;;;3.70;;
82374;SDS011;72005;50.496;15.798;2024-03-17T07:51:45;8.13;;;2.80;;
82374;SDS011;72005;50.496;15.798;2024-03-17T07:54:11;5.93;;;2.17;;
82374;SDS011;72005;50.496;15.798;2024-03-17T07:56:39;3.03;;;1.70;;
82374;SDS011;72005;50.496;15.798;2024-03-17T07:59:05;3.00;;;1.25;;
82374;SDS011;72005;50.496;15.798;2024-03-17T08:01:37;6.78;;;1.38;;
82374;SDS011;72005;50.496;15.798;2024-03-17T08:04:03;4.78;;;1.60;;
82374;SDS011;72005;50.496;15.798;2024-03-17T08:06:30;3.05;;;1.27;;
82374;SDS011;72005;50.496;15.798;2024-03-17T08:08:55;6.63;;;1.90;;
82374;SDS011;72005;50.496;15.798;2024-03-17T08:11:22;6.75;;;1.67;;
82374;SDS011;72005;50.496;15.798;2024-03-17T08:13:49;6.88;;;1.55;;
82374;SDS011;72005;50.496;15.798;2024-03-17T08:16:15;4.35;;;1.35;;
82374;SDS011;72005;50.496;15.798;2024-03-17T08:18:42;15.15;;;9.45;;
82374;SDS011;72005;50.496;15.798;2024-03-17T08:21:08;20.67;;;13.15;;
82374;SDS011;72005;50.496;15.798;2024-03-17T08:23:35;12.70;;;6.47;;
82374;SDS011;72005;50.496;15.798;2024-03-17T08:26:05;10.55;;;6.10;;
82374;SDS011;72005;50.496;15.798;2024-03-17T08:28:31;4.00;;;2.38;;
82374;SDS011;72005;50.496;15.798;2024-03-17T08:31:00;6.80;;;3.60;;
82374;SDS011;72005;50.496;15.798;2024-03-17T08:33:27;7.28;;;2.20;;
82374;SDS011;72005;50.496;15.798;2024-03-17T08:38:23;7.22;;;2.88;;
82374;SDS011;72005;50.496;15.798;2024-03-17T08:40:50;6.70;;;1.30;;
82374;SDS011;72005;50.496;15.798;2024-03-17T08:43:19;2.55;;;1.30;;
82374;SDS011;72005;50.496;15.798;2024-03-17T08:45:53;8.50;;;2.92;;
82374;SDS011;72005;50.496;15.798;2024-03-17T08:48:25;3.72;;;2.45;;
82374;SDS011;72005;50.496;15.798;2024-03-17T08:50:54;5.80;;;2.92;;
82374;SDS011;72005;50.496;15.798;2024-03-17T08:53:20;12.20;;;8.40;;
82374;SDS011;72005;50.496;15.798;2024-03-17T08:55:47;6.35;;;2.78;;
82374;SDS011;72005;50.496;15.798;2024-03-17T08:58:13;6.13;;;2.80;;
82374;SDS011;72005;50.496;15.798;2024-03-17T09:00:39;3.78;;;1.60;;
82374;SDS011;72005;50.496;15.798;2024-03-17T09:03:06;7.22;;;2.65;;
82374;SDS011;72005;50.496;15.798;2024-03-17T09:05:39;9.07;;;3.10;;
82374;SDS011;72005;50.496;15.798;2024-03-17T09:08:06;5.30;;;2.40;;
82374;SDS011;72005;50.496;15.798;2024-03-17T09:10:40;7.47;;;1.92;;
82374;SDS011;72005;50.496;15.798;2024-03-17T09:13:07;6.32;;;1.95;;
82374;SDS011;72005;50.496;15.798;2024-03-17T09:15:40;5.85;;;1.80;;
82374;SDS011;72005;50.496;15.798;2024-03-17T09:18:14;3.50;;;2.10;;
82374;SDS011;72005;50.496;15.798;2024-03-17T09:20:40;4.00;;;1.70;;
82374;SDS011;72005;50.496;15.798;2024-03-17T09:23:06;3.25;;;1.40;;
82374;SDS011;72005;50.496;15.798;2024-03-17T09:25:31;4.60;;;1.65;;
82374;SDS011;72005;50.496;15.798;2024-03-17T09:27:57;5.68;;;1.50;;
82374;SDS011;72005;50.496;15.798;2024-03-17T09:30:23;9.82;;;2.00;;
82374;SDS011;72005;50.496;15.798;2024-03-17T09:32:50;4.53;;;1.88;;
82374;SDS011;72005;50.496;15.798;2024-03-17T09:35:15;3.78;;;1.80;;
82374;SDS011;72005;50.496;15.798;2024-03-17T09:37:41;1.92;;;1.67;;
82374;SDS011;72005;50.496;15.798;2024-03-17T09:40:10;3.55;;;2.03;;
82374;SDS011;72005;50.496;15.798;2024-03-17T09:42:40;4.97;;;1.90;;
82374;SDS011;72005;50.496;15.798;2024-03-17T09:45:08;4.78;;;1.80;;
82374;SDS011;72005;50.496;15.798;2024-03-17T09:47:36;5.38;;;1.95;;
82374;SDS011;72005;50.496;15.798;2024-03-17T09:50:02;5.47;;;1.83;;
82374;SDS011;72005;50.496;15.798;2024-03-17T09:52:28;4.80;;;2.03;;
82374;SDS011;72005;50.496;15.798;2024-03-17T09:55:01;6.10;;;2.22;;
82374;SDS011;72005;50.496;15.798;2024-03-17T09:57:38;3.10;;;1.70;;
82374;SDS011;72005;50.496;15.798;2024-03-17T10:00:10;35.50;;;2.95;;
82374;SDS011;72005;50.496;15.798;2024-03-17T10:05:20;3.72;;;1.65;;
82374;SDS011;72005;50.496;15.798;2024-03-17T10:07:47;3.40;;;1.60;;
82374;SDS011;72005;50.496;15.798;2024-03-17T10:10:16;3.38;;;1.70;;
82374;SDS011;72005;50.496;15.798;2024-03-17T10:12:49;2.92;;;1.58;;
82374;SDS011;72005;50.496;15.798;2024-03-17T10:15:19;2.87;;;1.67;;
82374;SDS011;72005;50.496;15.798;2024-03-17T10:17:49;5.63;;;1.77;;
82374;SDS011;72005;50.496;15.798;2024-03-17T10:20:21;3.25;;;1.30;;
82374;SDS011;72005;50.496;15.798;2024-03-17T10:23:01;4.15;;;1.80;;
82374;SDS011;72005;50.496;15.798;2024-03-17T10:25:32;2.70;;;1.48;;
82374;SDS011;72005;50.496;15.798;2024-03-17T10:27:59;7.40;;;1.42;;
82374;SDS011;72005;50.496;15.798;2024-03-17T10:30:27;2.75;;;1.33;;
82374;SDS011;72005;50.496;15.798;2024-03-17T10:33:00;3.88;;;1.70;;
82374;SDS011;72005;50.496;15.798;2024-03-17T10:38:06;3.75;;;1.83;;
82374;SDS011;72005;50.496;15.798;2024-03-17T10:40:32;2.92;;;1.75;;
82374;SDS011;72005;50.496;15.798;2024-03-17T10:42:59;3.80;;;1.60;;
82374;SDS011;72005;50.496;15.798;2024-03-17T10:45:26;2.03;;;1.42;;
82374;SDS011;72005;50.496;15.798;2024-03-17T10:47:59;3.45;;;1.42;;
82374;SDS011;72005;50.496;15.798;2024-03-17T10:50:26;3.17;;;1.27;;
82374;SDS011;72005;50.496;15.798;2024-03-17T10:53:03;5.75;;;1.42;;
82374;SDS011;72005;50.496;15.798;2024-03-17T11:00:43;3.20;;;1.50;;
82374;SDS011;72005;50.496;15.798;2024-03-17T11:03:09;6.43;;;1.60;;
82374;SDS011;72005;50.496;15.798;2024-03-17T11:05:37;2.72;;;1.55;;
82374;SDS011;72005;50.496;15.798;2024-03-17T11:08:03;2.50;;;1.63;;
82374;SDS011;72005;50.496;15.798;2024-03-17T11:10:35;3.33;;;1.63;;
82374;SDS011;72005;50.496;15.798;2024-03-17T11:13:02;4.95;;;1.60;;
82374;SDS011;72005;50.496;15.798;2024-03-17T11:20:39;4.63;;;1.50;;
82374;SDS011;72005;50.496;15.798;2024-03-17T11:23:06;3.75;;;1.70;;
82374;SDS011;72005;50.496;15.798;2024-03-17T11:28:01;3.13;;;1.80;;
82374;SDS011;72005;50.496;15.798;2024-03-17T11:33:50;2.88;;;1.90;;
82374;SDS011;72005;50.496;15.798;2024-03-17T11:38:53;5.18;;;2.28;;
82374;SDS011;72005;50.496;15.798;2024-03-17T11:44:12;6.78;;;2.20;;
82374;SDS011;72005;50.496;15.798;2024-03-17T11:47:01;3.65;;;1.65;;
82374;SDS011;72005;50.496;15.798;2024-03-17T11:49:33;5.05;;;1.90;;
82374;SDS011;72005;50.496;15.798;2024-03-17T11:54:41;6.07;;;1.75;;
82374;SDS011;72005;50.496;15.798;2024-03-17T11:57:12;3.30;;;1.63;;
82374;SDS011;72005;50.496;15.798;2024-03-17T11:59:39;3.00;;;1.65;;
82374;SDS011;72005;50.496;15.798;2024-03-17T12:02:26;3.92;;;2.05;;
82374;SDS011;72005;50.496;15.798;2024-03-17T12:04:53;4.25;;;2.13;;
82374;SDS011;72005;50.496;15.798;2024-03-17T12:07:22;3.13;;;2.42;;
82374;SDS011;72005;50.496;15.798;2024-03-17T12:09:49;6.60;;;2.88;;
82374;SDS011;72005;50.496;15.798;2024-03-17T12:12:17;4.15;;;2.63;;
82374;SDS011;72005;50.496;15.798;2024-03-17T12:14:44;7.70;;;3.67;;
82374;SDS011;72005;50.496;15.798;2024-03-17T12:17:12;5.10;;;2.92;;
82374;SDS011;72005;50.496;15.798;2024-03-17T12:19:39;3.17;;;2.65;;
82374;SDS011;72005;50.496;15.798;2024-03-17T12:22:06;3.10;;;1.85;;
82374;SDS011;72005;50.496;15.798;2024-03-17T12:24:32;3.33;;;1.55;;
82374;SDS011;72005;50.496;15.798;2024-03-17T12:27:00;5.38;;;1.60;;
82374;SDS011;72005;50.496;15.798;2024-03-17T12:29:32;3.47;;;1.30;;
82374;SDS011;72005;50.496;15.798;2024-03-17T12:32:05;6.20;;;1.42;;
82374;SDS011;72005;50.496;15.798;2024-03-17T12:34:38;2.92;;;1.08;;
82374;SDS011;72005;50.496;15.798;2024-03-17T12:37:04;1.95;;;1.15;;
82374;SDS011;72005;50.496;15.798;2024-03-17T12:39:34;2.85;;;1.20;;
82374;SDS011;72005;50.496;15.798;2024-03-17T12:42:08;4.45;;;1.60;;
82374;SDS011;72005;50.496;15.798;2024-03-17T12:44:46;4.60;;;1.42;;
82374;SDS011;72005;50.496;15.798;2024-03-17T12:47:20;2.40;;;1.40;;
82374;SDS011;72005;50.496;15.798;2024-03-17T12:49:50;5.30;;;1.77;;
82374;SDS011;72005;50.496;15.798;2024-03-17T12:52:18;5.05;;;1.88;;
82374;SDS011;72005;50.496;15.798;2024-03-17T12:54:56;3.60;;;1.10;;
82374;SDS011;72005;50.496;15.798;2024-03-17T12:57:42;2.80;;;1.50;;
82374;SDS011;72005;50.496;15.798;2024-03-17T13:00:27;3.45;;;1.08;;
82374;SDS011;72005;50.496;15.798;2024-03-17T13:03:05;3.42;;;1.10;;
82374;SDS011;72005;50.496;15.798;2024-03-17T13:05:32;4.50;;;1.50;;
82374;SDS011;72005;50.496;15.798;2024-03-17T13:07:59;2.28;;;1.27;;
82374;SDS011;72005;50.496;15.798;2024-03-17T13:10:25;5.57;;;1.25;;
82374;SDS011;72005;50.496;15.798;2024-03-17T13:13:04;2.08;;;1.20;;
82374;SDS011;72005;50.496;15.798;2024-03-17T13:15:32;2.22;;;1.33;;
82374;SDS011;72005;50.496;15.798;2024-03-17T13:18:04;2.13;;;1.48;;
82374;SDS011;72005;50.496;15.798;2024-03-17T13:20:33;7.43;;;2.10;;
82374;SDS011;72005;50.496;15.798;2024-03-17T13:23:00;6.22;;;2.17;;
82374;SDS011;72005;50.496;15.798;2024-03-17T13:25:27;8.10;;;2.45;;
82374;SDS011;72005;50.496;15.798;2024-03-17T13:28:02;4.85;;;2.20;;
82374;SDS011;72005;50.496;15.798;2024-03-17T13:30:29;5.57;;;3.30;;
82374;SDS011;72005;50.496;15.798;2024-03-17T13:32:55;5.70;;;2.40;;
82374;SDS011;72005;50.496;15.798;2024-03-17T13:35:26;3.17;;;2.10;;
82374;SDS011;72005;50.496;15.798;2024-03-17T13:37:53;4.40;;;1.52;;
82374;SDS011;72005;50.496;15.798;2024-03-17T13:40:23;4.35;;;1.73;;
82374;SDS011;72005;50.496;15.798;2024-03-17T13:42:49;3.05;;;1.60;;
82374;SDS011;72005;50.496;15.798;2024-03-17T13:45:17;5.03;;;2.03;;
82374;SDS011;72005;50.496;15.798;2024-03-17T13:47:46;5.07;;;2.17;;
82374;SDS011;72005;50.496;15.798;2024-03-17T13:50:14;9.80;;;4.25;;
82374;SDS011;72005;50.496;15.798;2024-03-17T13:52:40;3.42;;;2.00;;
82374;SDS011;72005;50.496;15.798;2024-03-17T13:55:06;2.70;;;1.83;;
82374;SDS011;72005;50.496;15.798;2024-03-17T13:57:38;2.58;;;1.40;;
82374;SDS011;72005;50.496;15.798;2024-03-17T14:00:04;1.33;;;1.15;;
82374;SDS011;72005;50.496;15.798;2024-03-17T14:02:33;4.38;;;1.48;;
82374;SDS011;72005;50.496;15.798;2024-03-17T14:04:58;4.88;;;1.88;;
82374;SDS011;72005;50.496;15.798;2024-03-17T14:07:25;8.27;;;1.90;;
82374;SDS011;72005;50.496;15.798;2024-03-17T14:09:51;5.75;;;1.98;;
82374;SDS011;72005;50.496;15.798;2024-03-17T14:12:17;6.88;;;3.17;;
82374;SDS011;72005;50.496;15.798;2024-03-17T14:14:43;5.30;;;2.80;;
82374;SDS011;72005;50.496;15.798;2024-03-17T14:17:09;6.00;;;2.28;;
82374;SDS011;72005;50.496;15.798;2024-03-17T14:19:35;7.15;;;3.95;;
82374;SDS011;72005;50.496;15.798;2024-03-17T14:22:01;7.53;;;2.90;;
82374;SDS011;72005;50.496;15.798;2024-03-17T14:24:26;8.15;;;4.80;;
82374;SDS011;72005;50.496;15.798;2024-03-17T14:26:54;8.90;;;3.65;;
82374;SDS011;72005;50.496;15.798;2024-03-17T14:29:19;5.90;;;3.15;;
82374;SDS011;72005;50.496;15.798;2024-03-17T14:31:45;9.25;;;4.63;;
82374;SDS011;72005;50.496;15.798;2024-03-17T14:34:11;3.40;;;2.28;;
82374;SDS011;72005;50.496;15.798;2024-03-17T14:36:37;5.82;;;2.90;;
82374;SDS011;72005;50.496;15.798;2024-03-17T14:39:02;3.90;;;2.03;;
82374;SDS011;72005;50.496;15.798;2024-03-17T14:41:29;4.45;;;2.45;;
82374;SDS011;72005;50.496;15.798;2024-03-17T14:43:55;3.30;;;1.48;;
82374;SDS011;72005;50.496;15.798;2024-03-17T14:46:25;3.33;;;1.80;;
82374;SDS011;72005;50.496;15.798;2024-03-17T14:48:51;3.10;;;1.60;;
82374;SDS011;72005;50.496;15.798;2024-03-17T14:51:18;7.97;;;2.00;;
82374;SDS011;72005;50.496;15.798;2024-03-17T14:53:43;3.33;;;1.35;;
82374;SDS011;72005;50.496;15.798;2024-03-17T14:56:14;4.30;;;1.40;;
82374;SDS011;72005;50.496;15.798;2024-03-17T14:58:41;3.22;;;1.13;;
82374;SDS011;72005;50.496;15.798;2024-03-17T15:01:07;4.15;;;1.40;;
82374;SDS011;72005;50.496;15.798;2024-03-17T15:03:34;2.15;;;1.40;;
82374;SDS011;72005;50.496;15.798;2024-03-17T15:06:01;2.50;;;1.40;;